<?xml version="1.0" encoding="UTF-8" standalone="no" ?>
<gpx xmlns="http://www.topografix.com/GPX/1/1" xmlns:xsi="http://www.w3.org/2001/XMLSchema-instance" xsi:schemaLocation="http://www.topografix.com/GPX/1/1 http://www.topografix.com/GPX/1/1/gpx.xsd" version="1.1" creator="VisuGPX - https://www.visugpx.com">
  <metadata>
    <name>Lac Labarre depuis Valsenestre</name>
    <desc><![CDATA[<p>Heure de départ: 09:11 10 oct. 2024<br/>Heure d'arrivée: 16:21 10 oct. 2024<br/>Distance: 10,9 km (07:10)<br/>Temps déplacement: 03:53<br/>Vitesse moyenne: 1,52 km/h<br/>Vitesse moyenne mouv.: 2,8 km/h<br/>Vitesse Max.: 5,29 km/h<br/>Altitude minimale: 1276 m<br/>Altitude maximale: 2454 m<br/>Vitesse de montée: 340,4 m/h<br/>Vitesse de descente: -306,3 m/h<br/>Gain d'altitude: 1150 m<br/>Perte d'altitude: -1154 m<br/>Temps de montée: 03:22<br/>Temps de descente: 03:46<br/></p><hr align="center" width="480" style="height: 2px; width: 517px"/>]]></desc>
  </metadata>
  <trk>
    <name><![CDATA[2024-10-10 09:11]]></name>
    <desc><![CDATA[<p>Heure de départ: 09:11 10 oct. 2024<br/>Heure d'arrivée: 16:21 10 oct. 2024<br/>Distance: 10,9 km (07:10)<br/>Temps déplacement: 03:53<br/>Vitesse moyenne: 1,52 km/h<br/>Vitesse moyenne mouv.: 2,8 km/h<br/>Vitesse Max.: 5,29 km/h<br/>Altitude minimale: 1276 m<br/>Altitude maximale: 2454 m<br/>Vitesse de montée: 340,4 m/h<br/>Vitesse de descente: -306,3 m/h<br/>Gain d'altitude: 1150 m<br/>Perte d'altitude: -1154 m<br/>Temps de montée: 03:22<br/>Temps de descente: 03:46<br/></p><hr align="center" width="480" style="height: 2px; width: 517px"/>]]></desc>
    <extensions>
      <line xmlns="http://www.topografix.com/GPX/gpx_style/0/2">
        <color>0000FF</color>
        <width>4</width>
      </line>
    </extensions>
    <trkseg>
      <trkpt lat="44.90759" lon="6.05455">
        <ele>1286.49</ele>
        <time>2024-10-10T07:11:28Z</time>
      </trkpt>
      <trkpt lat="44.90776" lon="6.05451">
        <ele>1299.73</ele>
        <time>2024-10-10T07:15:10Z</time>
      </trkpt>
      <trkpt lat="44.90789" lon="6.05432">
        <ele>1294.8</ele>
        <time>2024-10-10T07:16:33Z</time>
      </trkpt>
      <trkpt lat="44.90806" lon="6.05438">
        <ele>1297.68</ele>
        <time>2024-10-10T07:16:50Z</time>
      </trkpt>
      <trkpt lat="44.90824" lon="6.05443">
        <ele>1297.44</ele>
        <time>2024-10-10T07:17:08Z</time>
      </trkpt>
      <trkpt lat="44.90842" lon="6.05446">
        <ele>1293.77</ele>
        <time>2024-10-10T07:17:28Z</time>
      </trkpt>
      <trkpt lat="44.9086" lon="6.05446">
        <ele>1296.73</ele>
        <time>2024-10-10T07:17:47Z</time>
      </trkpt>
      <trkpt lat="44.90879" lon="6.05441">
        <ele>1295.03</ele>
        <time>2024-10-10T07:18:05Z</time>
      </trkpt>
      <trkpt lat="44.90898" lon="6.05438">
        <ele>1293.71</ele>
        <time>2024-10-10T07:18:27Z</time>
      </trkpt>
      <trkpt lat="44.90912" lon="6.05422">
        <ele>1292.74</ele>
        <time>2024-10-10T07:18:41Z</time>
      </trkpt>
      <trkpt lat="44.90926" lon="6.05405">
        <ele>1291.04</ele>
        <time>2024-10-10T07:19:02Z</time>
      </trkpt>
      <trkpt lat="44.90926" lon="6.0538">
        <ele>1292.73</ele>
        <time>2024-10-10T07:19:24Z</time>
      </trkpt>
      <trkpt lat="44.90919" lon="6.05356">
        <ele>1289.74</ele>
        <time>2024-10-10T07:19:43Z</time>
      </trkpt>
      <trkpt lat="44.90914" lon="6.05331">
        <ele>1289.74</ele>
        <time>2024-10-10T07:20:00Z</time>
      </trkpt>
      <trkpt lat="44.90917" lon="6.05305">
        <ele>1290.71</ele>
        <time>2024-10-10T07:20:18Z</time>
      </trkpt>
      <trkpt lat="44.90922" lon="6.0528">
        <ele>1286.74</ele>
        <time>2024-10-10T07:21:02Z</time>
      </trkpt>
      <trkpt lat="44.90928" lon="6.05255">
        <ele>1290.44</ele>
        <time>2024-10-10T07:21:26Z</time>
      </trkpt>
      <trkpt lat="44.9093" lon="6.0523">
        <ele>1289.74</ele>
        <time>2024-10-10T07:21:43Z</time>
      </trkpt>
      <trkpt lat="44.9093" lon="6.05204">
        <ele>1290.74</ele>
        <time>2024-10-10T07:22:03Z</time>
      </trkpt>
      <trkpt lat="44.9093" lon="6.05179">
        <ele>1294.44</ele>
        <time>2024-10-10T07:22:29Z</time>
      </trkpt>
      <trkpt lat="44.90947" lon="6.05168">
        <ele>1302.8</ele>
        <time>2024-10-10T07:23:15Z</time>
      </trkpt>
      <trkpt lat="44.90953" lon="6.05144">
        <ele>1305.8</ele>
        <time>2024-10-10T07:23:44Z</time>
      </trkpt>
      <trkpt lat="44.90954" lon="6.05118">
        <ele>1305.77</ele>
        <time>2024-10-10T07:24:09Z</time>
      </trkpt>
      <trkpt lat="44.90955" lon="6.05092">
        <ele>1308.74</ele>
        <time>2024-10-10T07:24:36Z</time>
      </trkpt>
      <trkpt lat="44.90955" lon="6.05066">
        <ele>1315.44</ele>
        <time>2024-10-10T07:25:03Z</time>
      </trkpt>
      <trkpt lat="44.90959" lon="6.05041">
        <ele>1319.44</ele>
        <time>2024-10-10T07:25:35Z</time>
      </trkpt>
      <trkpt lat="44.9096" lon="6.05016">
        <ele>1325.41</ele>
        <time>2024-10-10T07:26:07Z</time>
      </trkpt>
      <trkpt lat="44.90956" lon="6.04991">
        <ele>1327.74</ele>
        <time>2024-10-10T07:26:37Z</time>
      </trkpt>
      <trkpt lat="44.90957" lon="6.04965">
        <ele>1331.71</ele>
        <time>2024-10-10T07:27:10Z</time>
      </trkpt>
      <trkpt lat="44.90961" lon="6.0494">
        <ele>1342.45</ele>
        <time>2024-10-10T07:27:56Z</time>
      </trkpt>
      <trkpt lat="44.90963" lon="6.04914">
        <ele>1347.71</ele>
        <time>2024-10-10T07:28:39Z</time>
      </trkpt>
      <trkpt lat="44.90966" lon="6.04888">
        <ele>1353.83</ele>
        <time>2024-10-10T07:31:39Z</time>
      </trkpt>
      <trkpt lat="44.90963" lon="6.04862">
        <ele>1355.75</ele>
        <time>2024-10-10T07:32:05Z</time>
      </trkpt>
      <trkpt lat="44.90958" lon="6.04836">
        <ele>1358.62</ele>
        <time>2024-10-10T07:32:26Z</time>
      </trkpt>
      <trkpt lat="44.90957" lon="6.0481">
        <ele>1358.77</ele>
        <time>2024-10-10T07:32:44Z</time>
      </trkpt>
      <trkpt lat="44.90954" lon="6.04784">
        <ele>1361.71</ele>
        <time>2024-10-10T07:33:05Z</time>
      </trkpt>
      <trkpt lat="44.90951" lon="6.04758">
        <ele>1363.74</ele>
        <time>2024-10-10T07:33:25Z</time>
      </trkpt>
      <trkpt lat="44.90951" lon="6.04732">
        <ele>1364.65</ele>
        <time>2024-10-10T07:33:44Z</time>
      </trkpt>
      <trkpt lat="44.90954" lon="6.04707">
        <ele>1366.72</ele>
        <time>2024-10-10T07:34:08Z</time>
      </trkpt>
      <trkpt lat="44.90948" lon="6.04683">
        <ele>1368.77</ele>
        <time>2024-10-10T07:34:35Z</time>
      </trkpt>
      <trkpt lat="44.90947" lon="6.04656">
        <ele>1374.67</ele>
        <time>2024-10-10T07:34:56Z</time>
      </trkpt>
      <trkpt lat="44.90949" lon="6.04631">
        <ele>1377.74</ele>
        <time>2024-10-10T07:35:20Z</time>
      </trkpt>
      <trkpt lat="44.90949" lon="6.04604">
        <ele>1379.65</ele>
        <time>2024-10-10T07:35:45Z</time>
      </trkpt>
      <trkpt lat="44.90948" lon="6.04578">
        <ele>1382.68</ele>
        <time>2024-10-10T07:36:09Z</time>
      </trkpt>
      <trkpt lat="44.90947" lon="6.04552">
        <ele>1385.44</ele>
        <time>2024-10-10T07:36:31Z</time>
      </trkpt>
      <trkpt lat="44.90949" lon="6.04525">
        <ele>1388.74</ele>
        <time>2024-10-10T07:37:00Z</time>
      </trkpt>
      <trkpt lat="44.90948" lon="6.04499">
        <ele>1393.65</ele>
        <time>2024-10-10T07:37:29Z</time>
      </trkpt>
      <trkpt lat="44.90947" lon="6.04473">
        <ele>1395.44</ele>
        <time>2024-10-10T07:37:50Z</time>
      </trkpt>
      <trkpt lat="44.90951" lon="6.04447">
        <ele>1402.41</ele>
        <time>2024-10-10T07:38:40Z</time>
      </trkpt>
      <trkpt lat="44.90954" lon="6.04422">
        <ele>1407.07</ele>
        <time>2024-10-10T07:39:14Z</time>
      </trkpt>
      <trkpt lat="44.90956" lon="6.04397">
        <ele>1410.73</ele>
        <time>2024-10-10T07:39:49Z</time>
      </trkpt>
      <trkpt lat="44.90958" lon="6.04371">
        <ele>1420.53</ele>
        <time>2024-10-10T07:40:52Z</time>
      </trkpt>
      <trkpt lat="44.90962" lon="6.04346">
        <ele>1433.71</ele>
        <time>2024-10-10T07:42:46Z</time>
      </trkpt>
      <trkpt lat="44.9096" lon="6.04321">
        <ele>1441.74</ele>
        <time>2024-10-10T07:43:40Z</time>
      </trkpt>
      <trkpt lat="44.90955" lon="6.04296">
        <ele>1445.65</ele>
        <time>2024-10-10T07:44:21Z</time>
      </trkpt>
      <trkpt lat="44.90955" lon="6.0427">
        <ele>1452.74</ele>
        <time>2024-10-10T07:45:07Z</time>
      </trkpt>
      <trkpt lat="44.90959" lon="6.04244">
        <ele>1459.41</ele>
        <time>2024-10-10T07:46:01Z</time>
      </trkpt>
      <trkpt lat="44.90966" lon="6.0422">
        <ele>1463.44</ele>
        <time>2024-10-10T07:46:44Z</time>
      </trkpt>
      <trkpt lat="44.90981" lon="6.04234">
        <ele>1477.35</ele>
        <time>2024-10-10T07:47:49Z</time>
      </trkpt>
      <trkpt lat="44.90982" lon="6.04209">
        <ele>1478.74</ele>
        <time>2024-10-10T07:48:34Z</time>
      </trkpt>
      <trkpt lat="44.91" lon="6.04212">
        <ele>1488.71</ele>
        <time>2024-10-10T07:50:06Z</time>
      </trkpt>
      <trkpt lat="44.91012" lon="6.04232">
        <ele>1500.71</ele>
        <time>2024-10-10T07:50:52Z</time>
      </trkpt>
      <trkpt lat="44.91023" lon="6.04254">
        <ele>1515.75</ele>
        <time>2024-10-10T07:52:34Z</time>
      </trkpt>
      <trkpt lat="44.91034" lon="6.04274">
        <ele>1523.44</ele>
        <time>2024-10-10T07:53:23Z</time>
      </trkpt>
      <trkpt lat="44.91045" lon="6.04253">
        <ele>1535.74</ele>
        <time>2024-10-10T07:54:49Z</time>
      </trkpt>
      <trkpt lat="44.91047" lon="6.04227">
        <ele>1539.41</ele>
        <time>2024-10-10T07:55:22Z</time>
      </trkpt>
      <trkpt lat="44.91051" lon="6.04202">
        <ele>1538.74</ele>
        <time>2024-10-10T07:56:01Z</time>
      </trkpt>
      <trkpt lat="44.91063" lon="6.04182">
        <ele>1543.43</ele>
        <time>2024-10-10T07:56:45Z</time>
      </trkpt>
      <trkpt lat="44.9108" lon="6.0417">
        <ele>1551.45</ele>
        <time>2024-10-10T07:57:31Z</time>
      </trkpt>
      <trkpt lat="44.91098" lon="6.04163">
        <ele>1554.74</ele>
        <time>2024-10-10T07:58:12Z</time>
      </trkpt>
      <trkpt lat="44.91115" lon="6.04155">
        <ele>1563.74</ele>
        <time>2024-10-10T07:59:06Z</time>
      </trkpt>
      <trkpt lat="44.91115" lon="6.04128">
        <ele>1560.95</ele>
        <time>2024-10-10T07:59:43Z</time>
      </trkpt>
      <trkpt lat="44.91117" lon="6.04102">
        <ele>1567.44</ele>
        <time>2024-10-10T08:00:15Z</time>
      </trkpt>
      <trkpt lat="44.91124" lon="6.04077">
        <ele>1565.74</ele>
        <time>2024-10-10T08:00:56Z</time>
      </trkpt>
      <trkpt lat="44.91135" lon="6.04057">
        <ele>1570.46</ele>
        <time>2024-10-10T08:06:04Z</time>
      </trkpt>
      <trkpt lat="44.91149" lon="6.04039">
        <ele>1576.74</ele>
        <time>2024-10-10T08:07:17Z</time>
      </trkpt>
      <trkpt lat="44.91163" lon="6.04023">
        <ele>1585.74</ele>
        <time>2024-10-10T08:08:26Z</time>
      </trkpt>
      <trkpt lat="44.91179" lon="6.04009">
        <ele>1590.44</ele>
        <time>2024-10-10T08:09:00Z</time>
      </trkpt>
      <trkpt lat="44.91192" lon="6.03991">
        <ele>1592.73</ele>
        <time>2024-10-10T08:09:49Z</time>
      </trkpt>
      <trkpt lat="44.91196" lon="6.03966">
        <ele>1602.65</ele>
        <time>2024-10-10T08:10:28Z</time>
      </trkpt>
      <trkpt lat="44.91205" lon="6.03944">
        <ele>1606.44</ele>
        <time>2024-10-10T08:11:14Z</time>
      </trkpt>
      <trkpt lat="44.91211" lon="6.03919">
        <ele>1611.04</ele>
        <time>2024-10-10T08:11:45Z</time>
      </trkpt>
      <trkpt lat="44.91214" lon="6.03894">
        <ele>1615.65</ele>
        <time>2024-10-10T08:12:26Z</time>
      </trkpt>
      <trkpt lat="44.91231" lon="6.03881">
        <ele>1625.14</ele>
        <time>2024-10-10T08:13:37Z</time>
      </trkpt>
      <trkpt lat="44.9125" lon="6.03877">
        <ele>1636.44</ele>
        <time>2024-10-10T08:14:49Z</time>
      </trkpt>
      <trkpt lat="44.91268" lon="6.0387">
        <ele>1643.74</ele>
        <time>2024-10-10T08:15:54Z</time>
      </trkpt>
      <trkpt lat="44.91285" lon="6.0386">
        <ele>1653.73</ele>
        <time>2024-10-10T08:16:50Z</time>
      </trkpt>
      <trkpt lat="44.91298" lon="6.03843">
        <ele>1652.74</ele>
        <time>2024-10-10T08:17:23Z</time>
      </trkpt>
      <trkpt lat="44.91307" lon="6.03821">
        <ele>1657.65</ele>
        <time>2024-10-10T08:18:14Z</time>
      </trkpt>
      <trkpt lat="44.91319" lon="6.03802">
        <ele>1660.74</ele>
        <time>2024-10-10T08:18:47Z</time>
      </trkpt>
      <trkpt lat="44.91333" lon="6.03786">
        <ele>1666.44</ele>
        <time>2024-10-10T08:19:37Z</time>
      </trkpt>
      <trkpt lat="44.9135" lon="6.03774">
        <ele>1667.65</ele>
        <time>2024-10-10T08:20:00Z</time>
      </trkpt>
      <trkpt lat="44.91366" lon="6.03764">
        <ele>1667.83</ele>
        <time>2024-10-10T08:20:45Z</time>
      </trkpt>
      <trkpt lat="44.91384" lon="6.03756">
        <ele>1670.65</ele>
        <time>2024-10-10T08:21:25Z</time>
      </trkpt>
      <trkpt lat="44.91401" lon="6.03744">
        <ele>1677.74</ele>
        <time>2024-10-10T08:22:05Z</time>
      </trkpt>
      <trkpt lat="44.91417" lon="6.03729">
        <ele>1687.71</ele>
        <time>2024-10-10T08:22:51Z</time>
      </trkpt>
      <trkpt lat="44.91433" lon="6.03716">
        <ele>1691.44</ele>
        <time>2024-10-10T08:23:32Z</time>
      </trkpt>
      <trkpt lat="44.91446" lon="6.03698">
        <ele>1694.74</ele>
        <time>2024-10-10T08:24:16Z</time>
      </trkpt>
      <trkpt lat="44.9146" lon="6.03682">
        <ele>1702.33</ele>
        <time>2024-10-10T08:24:55Z</time>
      </trkpt>
      <trkpt lat="44.91471" lon="6.03661">
        <ele>1706.02</ele>
        <time>2024-10-10T08:25:35Z</time>
      </trkpt>
      <trkpt lat="44.91475" lon="6.03635">
        <ele>1710.65</ele>
        <time>2024-10-10T08:26:09Z</time>
      </trkpt>
      <trkpt lat="44.91483" lon="6.03611">
        <ele>1711.45</ele>
        <time>2024-10-10T08:26:35Z</time>
      </trkpt>
      <trkpt lat="44.91487" lon="6.03586">
        <ele>1710.04</ele>
        <time>2024-10-10T08:27:45Z</time>
      </trkpt>
      <trkpt lat="44.91474" lon="6.03569">
        <ele>1712.74</ele>
        <time>2024-10-10T08:29:43Z</time>
      </trkpt>
      <trkpt lat="44.91456" lon="6.03561">
        <ele>1718.76</ele>
        <time>2024-10-10T08:30:03Z</time>
      </trkpt>
      <trkpt lat="44.91439" lon="6.03553">
        <ele>1723.34</ele>
        <time>2024-10-10T08:30:24Z</time>
      </trkpt>
      <trkpt lat="44.91425" lon="6.03536">
        <ele>1723.44</ele>
        <time>2024-10-10T08:30:49Z</time>
      </trkpt>
      <trkpt lat="44.91408" lon="6.03525">
        <ele>1724.65</ele>
        <time>2024-10-10T08:31:09Z</time>
      </trkpt>
      <trkpt lat="44.91417" lon="6.03503">
        <ele>1731.74</ele>
        <time>2024-10-10T08:32:05Z</time>
      </trkpt>
      <trkpt lat="44.91435" lon="6.03498">
        <ele>1734.73</ele>
        <time>2024-10-10T08:32:27Z</time>
      </trkpt>
      <trkpt lat="44.91453" lon="6.03495">
        <ele>1742.35</ele>
        <time>2024-10-10T08:33:05Z</time>
      </trkpt>
      <trkpt lat="44.91438" lon="6.03479">
        <ele>1746.74</ele>
        <time>2024-10-10T08:33:32Z</time>
      </trkpt>
      <trkpt lat="44.91421" lon="6.03468">
        <ele>1755.44</ele>
        <time>2024-10-10T08:34:01Z</time>
      </trkpt>
      <trkpt lat="44.91403" lon="6.0346">
        <ele>1758.77</ele>
        <time>2024-10-10T08:34:24Z</time>
      </trkpt>
      <trkpt lat="44.91384" lon="6.03462">
        <ele>1753.45</ele>
        <time>2024-10-10T08:35:04Z</time>
      </trkpt>
      <trkpt lat="44.91398" lon="6.03445">
        <ele>1759.74</ele>
        <time>2024-10-10T08:35:37Z</time>
      </trkpt>
      <trkpt lat="44.91414" lon="6.03433">
        <ele>1762.74</ele>
        <time>2024-10-10T08:36:04Z</time>
      </trkpt>
      <trkpt lat="44.91397" lon="6.03425">
        <ele>1769.65</ele>
        <time>2024-10-10T08:37:01Z</time>
      </trkpt>
      <trkpt lat="44.91406" lon="6.03402">
        <ele>1779.74</ele>
        <time>2024-10-10T08:38:30Z</time>
      </trkpt>
      <trkpt lat="44.91423" lon="6.03392">
        <ele>1784.44</ele>
        <time>2024-10-10T08:39:05Z</time>
      </trkpt>
      <trkpt lat="44.9144" lon="6.0338">
        <ele>1792.65</ele>
        <time>2024-10-10T08:39:49Z</time>
      </trkpt>
      <trkpt lat="44.91458" lon="6.03375">
        <ele>1797.04</ele>
        <time>2024-10-10T08:40:36Z</time>
      </trkpt>
      <trkpt lat="44.91476" lon="6.03367">
        <ele>1795.44</ele>
        <time>2024-10-10T08:41:14Z</time>
      </trkpt>
      <trkpt lat="44.91488" lon="6.03348">
        <ele>1807.01</ele>
        <time>2024-10-10T08:42:20Z</time>
      </trkpt>
      <trkpt lat="44.91506" lon="6.03348">
        <ele>1813.71</ele>
        <time>2024-10-10T08:42:58Z</time>
      </trkpt>
      <trkpt lat="44.91523" lon="6.03337">
        <ele>1818.41</ele>
        <time>2024-10-10T08:43:38Z</time>
      </trkpt>
      <trkpt lat="44.91541" lon="6.03331">
        <ele>1824.74</ele>
        <time>2024-10-10T08:44:16Z</time>
      </trkpt>
      <trkpt lat="44.91559" lon="6.0333">
        <ele>1829.47</ele>
        <time>2024-10-10T08:44:55Z</time>
      </trkpt>
      <trkpt lat="44.91576" lon="6.0334">
        <ele>1838.38</ele>
        <time>2024-10-10T08:45:45Z</time>
      </trkpt>
      <trkpt lat="44.91587" lon="6.0336">
        <ele>1843.44</ele>
        <time>2024-10-10T08:46:28Z</time>
      </trkpt>
      <trkpt lat="44.91603" lon="6.03373">
        <ele>1850.65</ele>
        <time>2024-10-10T08:47:03Z</time>
      </trkpt>
      <trkpt lat="44.91621" lon="6.0338">
        <ele>1850.44</ele>
        <time>2024-10-10T08:47:36Z</time>
      </trkpt>
      <trkpt lat="44.91639" lon="6.03381">
        <ele>1855.41</ele>
        <time>2024-10-10T08:48:09Z</time>
      </trkpt>
      <trkpt lat="44.91658" lon="6.03378">
        <ele>1857.01</ele>
        <time>2024-10-10T08:48:33Z</time>
      </trkpt>
      <trkpt lat="44.91676" lon="6.03378">
        <ele>1856.04</ele>
        <time>2024-10-10T08:48:56Z</time>
      </trkpt>
      <trkpt lat="44.91694" lon="6.03377">
        <ele>1854.74</ele>
        <time>2024-10-10T08:49:15Z</time>
      </trkpt>
      <trkpt lat="44.91712" lon="6.03384">
        <ele>1857.74</ele>
        <time>2024-10-10T08:49:40Z</time>
      </trkpt>
      <trkpt lat="44.9173" lon="6.03384">
        <ele>1863.65</ele>
        <time>2024-10-10T08:50:11Z</time>
      </trkpt>
      <trkpt lat="44.91749" lon="6.03389">
        <ele>1863.76</ele>
        <time>2024-10-10T08:50:40Z</time>
      </trkpt>
      <trkpt lat="44.91765" lon="6.03376">
        <ele>1870.71</ele>
        <time>2024-10-10T08:52:03Z</time>
      </trkpt>
      <trkpt lat="44.91782" lon="6.03369">
        <ele>1878.74</ele>
        <time>2024-10-10T08:52:46Z</time>
      </trkpt>
      <trkpt lat="44.91798" lon="6.03384">
        <ele>1891.62</ele>
        <time>2024-10-10T08:55:49Z</time>
      </trkpt>
      <trkpt lat="44.91813" lon="6.03369">
        <ele>1893.74</ele>
        <time>2024-10-10T08:56:51Z</time>
      </trkpt>
      <trkpt lat="44.9183" lon="6.03381">
        <ele>1900.74</ele>
        <time>2024-10-10T08:57:54Z</time>
      </trkpt>
      <trkpt lat="44.91835" lon="6.03356">
        <ele>1914.44</ele>
        <time>2024-10-10T08:59:06Z</time>
      </trkpt>
      <trkpt lat="44.91853" lon="6.03358">
        <ele>1919.73</ele>
        <time>2024-10-10T08:59:38Z</time>
      </trkpt>
      <trkpt lat="44.91868" lon="6.03342">
        <ele>1920.75</ele>
        <time>2024-10-10T09:00:29Z</time>
      </trkpt>
      <trkpt lat="44.91886" lon="6.03337">
        <ele>1920.44</ele>
        <time>2024-10-10T09:00:55Z</time>
      </trkpt>
      <trkpt lat="44.91904" lon="6.03344">
        <ele>1924.04</ele>
        <time>2024-10-10T09:01:39Z</time>
      </trkpt>
      <trkpt lat="44.91917" lon="6.03362">
        <ele>1933.74</ele>
        <time>2024-10-10T09:02:13Z</time>
      </trkpt>
      <trkpt lat="44.91934" lon="6.03374">
        <ele>1936.83</ele>
        <time>2024-10-10T09:02:42Z</time>
      </trkpt>
      <trkpt lat="44.9195" lon="6.03386">
        <ele>1941.76</ele>
        <time>2024-10-10T09:03:13Z</time>
      </trkpt>
      <trkpt lat="44.91956" lon="6.0341">
        <ele>1945.5</ele>
        <time>2024-10-10T09:03:42Z</time>
      </trkpt>
      <trkpt lat="44.91974" lon="6.03405">
        <ele>1951.63</ele>
        <time>2024-10-10T09:04:20Z</time>
      </trkpt>
      <trkpt lat="44.91989" lon="6.03391">
        <ele>1953.74</ele>
        <time>2024-10-10T09:12:31Z</time>
      </trkpt>
      <trkpt lat="44.92007" lon="6.03386">
        <ele>1957.82</ele>
        <time>2024-10-10T09:12:58Z</time>
      </trkpt>
      <trkpt lat="44.92025" lon="6.03381">
        <ele>1961.71</ele>
        <time>2024-10-10T09:13:24Z</time>
      </trkpt>
      <trkpt lat="44.92043" lon="6.03375">
        <ele>1964.65</ele>
        <time>2024-10-10T09:13:48Z</time>
      </trkpt>
      <trkpt lat="44.92061" lon="6.0337">
        <ele>1966.68</ele>
        <time>2024-10-10T09:14:17Z</time>
      </trkpt>
      <trkpt lat="44.92071" lon="6.03348">
        <ele>1974.43</ele>
        <time>2024-10-10T09:14:51Z</time>
      </trkpt>
      <trkpt lat="44.92076" lon="6.03322">
        <ele>1978.74</ele>
        <time>2024-10-10T09:15:25Z</time>
      </trkpt>
      <trkpt lat="44.92079" lon="6.03297">
        <ele>1983.68</ele>
        <time>2024-10-10T09:15:55Z</time>
      </trkpt>
      <trkpt lat="44.92076" lon="6.03271">
        <ele>1988.44</ele>
        <time>2024-10-10T09:16:31Z</time>
      </trkpt>
      <trkpt lat="44.92075" lon="6.03244">
        <ele>1990.07</ele>
        <time>2024-10-10T09:17:08Z</time>
      </trkpt>
      <trkpt lat="44.92094" lon="6.0324">
        <ele>1996.44</ele>
        <time>2024-10-10T09:17:47Z</time>
      </trkpt>
      <trkpt lat="44.92112" lon="6.03241">
        <ele>2002.74</ele>
        <time>2024-10-10T09:18:23Z</time>
      </trkpt>
      <trkpt lat="44.92127" lon="6.03255">
        <ele>2008.62</ele>
        <time>2024-10-10T09:18:55Z</time>
      </trkpt>
      <trkpt lat="44.92144" lon="6.03266">
        <ele>2009.65</ele>
        <time>2024-10-10T09:19:25Z</time>
      </trkpt>
      <trkpt lat="44.92159" lon="6.03281">
        <ele>2013.74</ele>
        <time>2024-10-10T09:20:02Z</time>
      </trkpt>
      <trkpt lat="44.92176" lon="6.03288">
        <ele>2019.44</ele>
        <time>2024-10-10T09:20:45Z</time>
      </trkpt>
      <trkpt lat="44.92192" lon="6.03301">
        <ele>2035.74</ele>
        <time>2024-10-10T09:21:47Z</time>
      </trkpt>
      <trkpt lat="44.92196" lon="6.03326">
        <ele>2035.77</ele>
        <time>2024-10-10T09:22:46Z</time>
      </trkpt>
      <trkpt lat="44.92206" lon="6.03349">
        <ele>2042.72</ele>
        <time>2024-10-10T09:23:53Z</time>
      </trkpt>
      <trkpt lat="44.92217" lon="6.0337">
        <ele>2044.95</ele>
        <time>2024-10-10T09:24:41Z</time>
      </trkpt>
      <trkpt lat="44.92232" lon="6.03386">
        <ele>2048.64</ele>
        <time>2024-10-10T09:25:07Z</time>
      </trkpt>
      <trkpt lat="44.92246" lon="6.03403">
        <ele>2054.65</ele>
        <time>2024-10-10T09:25:46Z</time>
      </trkpt>
      <trkpt lat="44.92263" lon="6.03412">
        <ele>2055.74</ele>
        <time>2024-10-10T09:26:14Z</time>
      </trkpt>
      <trkpt lat="44.92281" lon="6.03416">
        <ele>2058.75</ele>
        <time>2024-10-10T09:26:40Z</time>
      </trkpt>
      <trkpt lat="44.92299" lon="6.03416">
        <ele>2061.65</ele>
        <time>2024-10-10T09:27:07Z</time>
      </trkpt>
      <trkpt lat="44.92316" lon="6.03426">
        <ele>2063.74</ele>
        <time>2024-10-10T09:27:33Z</time>
      </trkpt>
      <trkpt lat="44.92334" lon="6.03433">
        <ele>2066.03</ele>
        <time>2024-10-10T09:27:59Z</time>
      </trkpt>
      <trkpt lat="44.92352" lon="6.03434">
        <ele>2070.74</ele>
        <time>2024-10-10T09:28:25Z</time>
      </trkpt>
      <trkpt lat="44.92369" lon="6.03446">
        <ele>2072.74</ele>
        <time>2024-10-10T09:28:53Z</time>
      </trkpt>
      <trkpt lat="44.92385" lon="6.03459">
        <ele>2074.65</ele>
        <time>2024-10-10T09:29:18Z</time>
      </trkpt>
      <trkpt lat="44.92398" lon="6.03476">
        <ele>2075.74</ele>
        <time>2024-10-10T09:29:41Z</time>
      </trkpt>
      <trkpt lat="44.92413" lon="6.03491">
        <ele>2077.53</ele>
        <time>2024-10-10T09:30:09Z</time>
      </trkpt>
      <trkpt lat="44.92432" lon="6.03492">
        <ele>2078.74</ele>
        <time>2024-10-10T09:30:34Z</time>
      </trkpt>
      <trkpt lat="44.9245" lon="6.03491">
        <ele>2081.74</ele>
        <time>2024-10-10T09:31:07Z</time>
      </trkpt>
      <trkpt lat="44.92469" lon="6.03492">
        <ele>2087.14</ele>
        <time>2024-10-10T09:32:01Z</time>
      </trkpt>
      <trkpt lat="44.92487" lon="6.03497">
        <ele>2094.75</ele>
        <time>2024-10-10T09:32:34Z</time>
      </trkpt>
      <trkpt lat="44.92505" lon="6.03503">
        <ele>2097.41</ele>
        <time>2024-10-10T09:33:11Z</time>
      </trkpt>
      <trkpt lat="44.92513" lon="6.03527">
        <ele>2098.74</ele>
        <time>2024-10-10T09:34:35Z</time>
      </trkpt>
      <trkpt lat="44.9251" lon="6.03552">
        <ele>2099.74</ele>
        <time>2024-10-10T09:35:01Z</time>
      </trkpt>
      <trkpt lat="44.92514" lon="6.03577">
        <ele>2100.53</ele>
        <time>2024-10-10T09:35:51Z</time>
      </trkpt>
      <trkpt lat="44.92517" lon="6.03603">
        <ele>2109.65</ele>
        <time>2024-10-10T09:36:43Z</time>
      </trkpt>
      <trkpt lat="44.92517" lon="6.03628">
        <ele>2113.44</ele>
        <time>2024-10-10T09:37:37Z</time>
      </trkpt>
      <trkpt lat="44.9251" lon="6.03652">
        <ele>2118.76</ele>
        <time>2024-10-10T09:38:19Z</time>
      </trkpt>
      <trkpt lat="44.92495" lon="6.03666">
        <ele>2124.74</ele>
        <time>2024-10-10T09:38:51Z</time>
      </trkpt>
      <trkpt lat="44.92481" lon="6.03684">
        <ele>2128.74</ele>
        <time>2024-10-10T09:39:38Z</time>
      </trkpt>
      <trkpt lat="44.92463" lon="6.0369">
        <ele>2137.45</ele>
        <time>2024-10-10T09:40:33Z</time>
      </trkpt>
      <trkpt lat="44.92445" lon="6.03699">
        <ele>2146.42</ele>
        <time>2024-10-10T09:41:39Z</time>
      </trkpt>
      <trkpt lat="44.92428" lon="6.03706">
        <ele>2149.03</ele>
        <time>2024-10-10T09:42:33Z</time>
      </trkpt>
      <trkpt lat="44.92413" lon="6.03721">
        <ele>2154.44</ele>
        <time>2024-10-10T09:43:15Z</time>
      </trkpt>
      <trkpt lat="44.92399" lon="6.03739">
        <ele>2161.74</ele>
        <time>2024-10-10T09:44:36Z</time>
      </trkpt>
      <trkpt lat="44.92416" lon="6.03751">
        <ele>2171.74</ele>
        <time>2024-10-10T09:46:07Z</time>
      </trkpt>
      <trkpt lat="44.92434" lon="6.03752">
        <ele>2178.04</ele>
        <time>2024-10-10T09:46:59Z</time>
      </trkpt>
      <trkpt lat="44.92451" lon="6.0376">
        <ele>2181.71</ele>
        <time>2024-10-10T09:47:51Z</time>
      </trkpt>
      <trkpt lat="44.92469" lon="6.03768">
        <ele>2186.04</ele>
        <time>2024-10-10T09:48:24Z</time>
      </trkpt>
      <trkpt lat="44.92486" lon="6.03777">
        <ele>2189.53</ele>
        <time>2024-10-10T09:49:04Z</time>
      </trkpt>
      <trkpt lat="44.92505" lon="6.03781">
        <ele>2196.44</ele>
        <time>2024-10-10T09:49:49Z</time>
      </trkpt>
      <trkpt lat="44.9252" lon="6.03795">
        <ele>2198.74</ele>
        <time>2024-10-10T09:54:11Z</time>
      </trkpt>
      <trkpt lat="44.92536" lon="6.03806">
        <ele>2197.54</ele>
        <time>2024-10-10T09:54:37Z</time>
      </trkpt>
      <trkpt lat="44.92555" lon="6.03805">
        <ele>2201.74</ele>
        <time>2024-10-10T09:55:04Z</time>
      </trkpt>
      <trkpt lat="44.92573" lon="6.03801">
        <ele>2204.74</ele>
        <time>2024-10-10T09:55:37Z</time>
      </trkpt>
      <trkpt lat="44.92592" lon="6.038">
        <ele>2212.82</ele>
        <time>2024-10-10T09:56:22Z</time>
      </trkpt>
      <trkpt lat="44.92609" lon="6.03793">
        <ele>2213.79</ele>
        <time>2024-10-10T09:56:58Z</time>
      </trkpt>
      <trkpt lat="44.92628" lon="6.03793">
        <ele>2219.74</ele>
        <time>2024-10-10T09:57:47Z</time>
      </trkpt>
      <trkpt lat="44.92647" lon="6.03794">
        <ele>2220.45</ele>
        <time>2024-10-10T09:58:27Z</time>
      </trkpt>
      <trkpt lat="44.92664" lon="6.03785">
        <ele>2226.35</ele>
        <time>2024-10-10T09:58:51Z</time>
      </trkpt>
      <trkpt lat="44.92682" lon="6.0379">
        <ele>2227.71</ele>
        <time>2024-10-10T09:59:25Z</time>
      </trkpt>
      <trkpt lat="44.927" lon="6.03794">
        <ele>2233.38</ele>
        <time>2024-10-10T10:00:08Z</time>
      </trkpt>
      <trkpt lat="44.92718" lon="6.03787">
        <ele>2239.44</ele>
        <time>2024-10-10T10:01:04Z</time>
      </trkpt>
      <trkpt lat="44.92735" lon="6.03775">
        <ele>2241.53</ele>
        <time>2024-10-10T10:01:36Z</time>
      </trkpt>
      <trkpt lat="44.92749" lon="6.0376">
        <ele>2246.02</ele>
        <time>2024-10-10T10:02:28Z</time>
      </trkpt>
      <trkpt lat="44.92767" lon="6.0375">
        <ele>2250.71</ele>
        <time>2024-10-10T10:03:16Z</time>
      </trkpt>
      <trkpt lat="44.92782" lon="6.03732">
        <ele>2254.74</ele>
        <time>2024-10-10T10:04:00Z</time>
      </trkpt>
      <trkpt lat="44.92797" lon="6.03718">
        <ele>2262.83</ele>
        <time>2024-10-10T10:04:35Z</time>
      </trkpt>
      <trkpt lat="44.9281" lon="6.03701">
        <ele>2267.8</ele>
        <time>2024-10-10T10:05:28Z</time>
      </trkpt>
      <trkpt lat="44.92825" lon="6.03685">
        <ele>2274.74</ele>
        <time>2024-10-10T10:06:28Z</time>
      </trkpt>
      <trkpt lat="44.92839" lon="6.03668">
        <ele>2281.8</ele>
        <time>2024-10-10T10:07:09Z</time>
      </trkpt>
      <trkpt lat="44.92854" lon="6.03653">
        <ele>2282.74</ele>
        <time>2024-10-10T10:07:39Z</time>
      </trkpt>
      <trkpt lat="44.92867" lon="6.03634">
        <ele>2287.71</ele>
        <time>2024-10-10T10:08:03Z</time>
      </trkpt>
      <trkpt lat="44.92879" lon="6.03616">
        <ele>2289.65</ele>
        <time>2024-10-10T10:08:31Z</time>
      </trkpt>
      <trkpt lat="44.92891" lon="6.03596">
        <ele>2291.5</ele>
        <time>2024-10-10T10:08:56Z</time>
      </trkpt>
      <trkpt lat="44.92902" lon="6.03576">
        <ele>2294.03</ele>
        <time>2024-10-10T10:09:23Z</time>
      </trkpt>
      <trkpt lat="44.92914" lon="6.03557">
        <ele>2295.83</ele>
        <time>2024-10-10T10:09:46Z</time>
      </trkpt>
      <trkpt lat="44.92932" lon="6.03551">
        <ele>2301.44</ele>
        <time>2024-10-10T10:10:21Z</time>
      </trkpt>
      <trkpt lat="44.92949" lon="6.0356">
        <ele>2305.74</ele>
        <time>2024-10-10T10:10:53Z</time>
      </trkpt>
      <trkpt lat="44.9295" lon="6.03588">
        <ele>2309.74</ele>
        <time>2024-10-10T10:11:48Z</time>
      </trkpt>
      <trkpt lat="44.92967" lon="6.03579">
        <ele>2315.71</ele>
        <time>2024-10-10T10:12:22Z</time>
      </trkpt>
      <trkpt lat="44.92983" lon="6.03565">
        <ele>2318.03</ele>
        <time>2024-10-10T10:12:53Z</time>
      </trkpt>
      <trkpt lat="44.92999" lon="6.03551">
        <ele>2320.81</ele>
        <time>2024-10-10T10:13:31Z</time>
      </trkpt>
      <trkpt lat="44.93013" lon="6.03568">
        <ele>2328.74</ele>
        <time>2024-10-10T10:14:26Z</time>
      </trkpt>
      <trkpt lat="44.93011" lon="6.03594">
        <ele>2330.74</ele>
        <time>2024-10-10T10:15:02Z</time>
      </trkpt>
      <trkpt lat="44.93027" lon="6.03607">
        <ele>2338.71</ele>
        <time>2024-10-10T10:16:08Z</time>
      </trkpt>
      <trkpt lat="44.93045" lon="6.03603">
        <ele>2346.73</ele>
        <time>2024-10-10T10:16:53Z</time>
      </trkpt>
      <trkpt lat="44.9304" lon="6.03628">
        <ele>2345.74</ele>
        <time>2024-10-10T10:17:37Z</time>
      </trkpt>
      <trkpt lat="44.93047" lon="6.03653">
        <ele>2357.41</ele>
        <time>2024-10-10T10:18:39Z</time>
      </trkpt>
      <trkpt lat="44.93063" lon="6.03665">
        <ele>2367.74</ele>
        <time>2024-10-10T10:20:02Z</time>
      </trkpt>
      <trkpt lat="44.93081" lon="6.03668">
        <ele>2373.04</ele>
        <time>2024-10-10T10:21:46Z</time>
      </trkpt>
      <trkpt lat="44.93094" lon="6.03685">
        <ele>2382.5</ele>
        <time>2024-10-10T10:22:52Z</time>
      </trkpt>
      <trkpt lat="44.9311" lon="6.03699">
        <ele>2384.76</ele>
        <time>2024-10-10T10:23:27Z</time>
      </trkpt>
      <trkpt lat="44.93129" lon="6.03693">
        <ele>2389.04</ele>
        <time>2024-10-10T10:24:52Z</time>
      </trkpt>
      <trkpt lat="44.93147" lon="6.037">
        <ele>2390.74</ele>
        <time>2024-10-10T10:25:14Z</time>
      </trkpt>
      <trkpt lat="44.9316" lon="6.03718">
        <ele>2386.04</ele>
        <time>2024-10-10T10:25:46Z</time>
      </trkpt>
      <trkpt lat="44.93176" lon="6.03731">
        <ele>2386.83</ele>
        <time>2024-10-10T10:26:09Z</time>
      </trkpt>
      <trkpt lat="44.93191" lon="6.03745">
        <ele>2391.44</ele>
        <time>2024-10-10T10:26:44Z</time>
      </trkpt>
      <trkpt lat="44.93209" lon="6.03739">
        <ele>2396.11</ele>
        <time>2024-10-10T10:28:59Z</time>
      </trkpt>
      <trkpt lat="44.93225" lon="6.03725">
        <ele>2396.74</ele>
        <time>2024-10-10T10:30:21Z</time>
      </trkpt>
      <trkpt lat="44.93241" lon="6.03711">
        <ele>2400.44</ele>
        <time>2024-10-10T10:31:03Z</time>
      </trkpt>
      <trkpt lat="44.93247" lon="6.03685">
        <ele>2406.44</ele>
        <time>2024-10-10T10:32:13Z</time>
      </trkpt>
      <trkpt lat="44.93253" lon="6.03659">
        <ele>2413.74</ele>
        <time>2024-10-10T10:33:29Z</time>
      </trkpt>
      <trkpt lat="44.93268" lon="6.03645">
        <ele>2422.71</ele>
        <time>2024-10-10T10:35:05Z</time>
      </trkpt>
      <trkpt lat="44.93261" lon="6.03621">
        <ele>2427.74</ele>
        <time>2024-10-10T10:36:06Z</time>
      </trkpt>
      <trkpt lat="44.93256" lon="6.03596">
        <ele>2431.02</ele>
        <time>2024-10-10T10:36:46Z</time>
      </trkpt>
      <trkpt lat="44.93273" lon="6.03587">
        <ele>2443.74</ele>
        <time>2024-10-10T10:38:36Z</time>
      </trkpt>
      <trkpt lat="44.9329" lon="6.03595">
        <ele>2450.04</ele>
        <time>2024-10-10T10:39:29Z</time>
      </trkpt>
      <trkpt lat="44.93308" lon="6.03602">
        <ele>2454.69</ele>
        <time>2024-10-10T10:40:07Z</time>
      </trkpt>
      <trkpt lat="44.9329" lon="6.03597">
        <ele>2451.83</ele>
        <time>2024-10-10T10:51:15Z</time>
      </trkpt>
      <trkpt lat="44.93272" lon="6.0359">
        <ele>2446.47</ele>
        <time>2024-10-10T10:51:43Z</time>
      </trkpt>
      <trkpt lat="44.93254" lon="6.03584">
        <ele>2438.75</ele>
        <time>2024-10-10T10:52:13Z</time>
      </trkpt>
      <trkpt lat="44.93256" lon="6.0361">
        <ele>2433.74</ele>
        <time>2024-10-10T10:53:07Z</time>
      </trkpt>
      <trkpt lat="44.9326" lon="6.03635">
        <ele>2434.74</ele>
        <time>2024-10-10T10:53:40Z</time>
      </trkpt>
      <trkpt lat="44.93252" lon="6.03659">
        <ele>2418.74</ele>
        <time>2024-10-10T10:54:59Z</time>
      </trkpt>
      <trkpt lat="44.93241" lon="6.0368">
        <ele>2411.46</ele>
        <time>2024-10-10T10:56:11Z</time>
      </trkpt>
      <trkpt lat="44.93233" lon="6.03703">
        <ele>2407.74</ele>
        <time>2024-10-10T10:56:43Z</time>
      </trkpt>
      <trkpt lat="44.93239" lon="6.03727">
        <ele>2404.85</ele>
        <time>2024-10-10T10:57:22Z</time>
      </trkpt>
      <trkpt lat="44.93255" lon="6.03737">
        <ele>2388.71</ele>
        <time>2024-10-10T11:35:06Z</time>
      </trkpt>
      <trkpt lat="44.93237" lon="6.03743">
        <ele>2389.74</ele>
        <time>2024-10-10T11:37:29Z</time>
      </trkpt>
      <trkpt lat="44.93219" lon="6.03748">
        <ele>2388.74</ele>
        <time>2024-10-10T11:37:54Z</time>
      </trkpt>
      <trkpt lat="44.932" lon="6.03747">
        <ele>2386.54</ele>
        <time>2024-10-10T11:38:17Z</time>
      </trkpt>
      <trkpt lat="44.93183" lon="6.03738">
        <ele>2385.65</ele>
        <time>2024-10-10T11:38:54Z</time>
      </trkpt>
      <trkpt lat="44.93169" lon="6.03721">
        <ele>2382.85</ele>
        <time>2024-10-10T11:39:15Z</time>
      </trkpt>
      <trkpt lat="44.93152" lon="6.03707">
        <ele>2384.44</ele>
        <time>2024-10-10T11:39:34Z</time>
      </trkpt>
      <trkpt lat="44.93135" lon="6.03699">
        <ele>2383.83</ele>
        <time>2024-10-10T11:39:55Z</time>
      </trkpt>
      <trkpt lat="44.93117" lon="6.03704">
        <ele>2380.44</ele>
        <time>2024-10-10T11:40:41Z</time>
      </trkpt>
      <trkpt lat="44.93101" lon="6.03691">
        <ele>2381.04</ele>
        <time>2024-10-10T11:41:09Z</time>
      </trkpt>
      <trkpt lat="44.93087" lon="6.03675">
        <ele>2377.74</ele>
        <time>2024-10-10T11:41:40Z</time>
      </trkpt>
      <trkpt lat="44.93069" lon="6.03667">
        <ele>2365.34</ele>
        <time>2024-10-10T11:42:48Z</time>
      </trkpt>
      <trkpt lat="44.93051" lon="6.03672">
        <ele>2360.73</ele>
        <time>2024-10-10T11:43:24Z</time>
      </trkpt>
      <trkpt lat="44.93049" lon="6.03646">
        <ele>2354.04</ele>
        <time>2024-10-10T11:43:55Z</time>
      </trkpt>
      <trkpt lat="44.93037" lon="6.03627">
        <ele>2346.34</ele>
        <time>2024-10-10T11:44:31Z</time>
      </trkpt>
      <trkpt lat="44.9302" lon="6.03616">
        <ele>2335.84</ele>
        <time>2024-10-10T11:44:59Z</time>
      </trkpt>
      <trkpt lat="44.93015" lon="6.03591">
        <ele>2325.86</ele>
        <time>2024-10-10T11:45:25Z</time>
      </trkpt>
      <trkpt lat="44.93013" lon="6.03564">
        <ele>2324.74</ele>
        <time>2024-10-10T11:45:47Z</time>
      </trkpt>
      <trkpt lat="44.92996" lon="6.03556">
        <ele>2319.77</ele>
        <time>2024-10-10T11:46:19Z</time>
      </trkpt>
      <trkpt lat="44.92981" lon="6.03571">
        <ele>2312.47</ele>
        <time>2024-10-10T11:47:05Z</time>
      </trkpt>
      <trkpt lat="44.92964" lon="6.03584">
        <ele>2309.83</ele>
        <time>2024-10-10T11:47:28Z</time>
      </trkpt>
      <trkpt lat="44.92952" lon="6.03563">
        <ele>2298.72</ele>
        <time>2024-10-10T11:48:11Z</time>
      </trkpt>
      <trkpt lat="44.92935" lon="6.03557">
        <ele>2299.62</ele>
        <time>2024-10-10T11:48:27Z</time>
      </trkpt>
      <trkpt lat="44.92917" lon="6.03564">
        <ele>2295.76</ele>
        <time>2024-10-10T11:48:45Z</time>
      </trkpt>
      <trkpt lat="44.92903" lon="6.03581">
        <ele>2293.05</ele>
        <time>2024-10-10T11:49:07Z</time>
      </trkpt>
      <trkpt lat="44.9289" lon="6.036">
        <ele>2288.74</ele>
        <time>2024-10-10T11:49:26Z</time>
      </trkpt>
      <trkpt lat="44.92878" lon="6.0362">
        <ele>2285.86</ele>
        <time>2024-10-10T11:49:44Z</time>
      </trkpt>
      <trkpt lat="44.92866" lon="6.0364">
        <ele>2282.05</ele>
        <time>2024-10-10T11:50:04Z</time>
      </trkpt>
      <trkpt lat="44.92852" lon="6.03655">
        <ele>2281.82</ele>
        <time>2024-10-10T11:50:21Z</time>
      </trkpt>
      <trkpt lat="44.92837" lon="6.03671">
        <ele>2277.77</ele>
        <time>2024-10-10T11:50:40Z</time>
      </trkpt>
      <trkpt lat="44.92822" lon="6.03686">
        <ele>2276.83</ele>
        <time>2024-10-10T11:51:09Z</time>
      </trkpt>
      <trkpt lat="44.92808" lon="6.03701">
        <ele>2268.69</ele>
        <time>2024-10-10T11:51:44Z</time>
      </trkpt>
      <trkpt lat="44.92795" lon="6.03719">
        <ele>2259.04</ele>
        <time>2024-10-10T11:52:20Z</time>
      </trkpt>
      <trkpt lat="44.92779" lon="6.03733">
        <ele>2257.07</ele>
        <time>2024-10-10T11:52:35Z</time>
      </trkpt>
      <trkpt lat="44.92764" lon="6.03749">
        <ele>2252.68</ele>
        <time>2024-10-10T11:52:53Z</time>
      </trkpt>
      <trkpt lat="44.92747" lon="6.0376">
        <ele>2245.86</ele>
        <time>2024-10-10T11:53:14Z</time>
      </trkpt>
      <trkpt lat="44.92732" lon="6.03775">
        <ele>2239.07</ele>
        <time>2024-10-10T11:53:47Z</time>
      </trkpt>
      <trkpt lat="44.92717" lon="6.03788">
        <ele>2234.75</ele>
        <time>2024-10-10T11:54:14Z</time>
      </trkpt>
      <trkpt lat="44.92699" lon="6.03795">
        <ele>2229.43</ele>
        <time>2024-10-10T11:54:50Z</time>
      </trkpt>
      <trkpt lat="44.92681" lon="6.03788">
        <ele>2227.74</ele>
        <time>2024-10-10T11:55:16Z</time>
      </trkpt>
      <trkpt lat="44.92662" lon="6.03787">
        <ele>2223.83</ele>
        <time>2024-10-10T11:55:33Z</time>
      </trkpt>
      <trkpt lat="44.92643" lon="6.03794">
        <ele>2222.74</ele>
        <time>2024-10-10T11:56:22Z</time>
      </trkpt>
      <trkpt lat="44.92624" lon="6.03796">
        <ele>2215.74</ele>
        <time>2024-10-10T12:04:12Z</time>
      </trkpt>
      <trkpt lat="44.92606" lon="6.03797">
        <ele>2208.83</ele>
        <time>2024-10-10T12:04:46Z</time>
      </trkpt>
      <trkpt lat="44.92589" lon="6.03788">
        <ele>2203.77</ele>
        <time>2024-10-10T12:05:32Z</time>
      </trkpt>
      <trkpt lat="44.92592" lon="6.03763">
        <ele>2191.15</ele>
        <time>2024-10-10T12:07:37Z</time>
      </trkpt>
      <trkpt lat="44.92606" lon="6.03746">
        <ele>2183.74</ele>
        <time>2024-10-10T12:08:42Z</time>
      </trkpt>
      <trkpt lat="44.92615" lon="6.03724">
        <ele>2175.04</ele>
        <time>2024-10-10T12:13:25Z</time>
      </trkpt>
      <trkpt lat="44.9263" lon="6.03709">
        <ele>2168.04</ele>
        <time>2024-10-10T12:14:24Z</time>
      </trkpt>
      <trkpt lat="44.92645" lon="6.03694">
        <ele>2161.83</ele>
        <time>2024-10-10T12:16:18Z</time>
      </trkpt>
      <trkpt lat="44.92654" lon="6.03672">
        <ele>2157.74</ele>
        <time>2024-10-10T12:16:45Z</time>
      </trkpt>
      <trkpt lat="44.92659" lon="6.03647">
        <ele>2147.62</ele>
        <time>2024-10-10T12:17:35Z</time>
      </trkpt>
      <trkpt lat="44.9265" lon="6.03624">
        <ele>2142.94</ele>
        <time>2024-10-10T12:18:15Z</time>
      </trkpt>
      <trkpt lat="44.92642" lon="6.036">
        <ele>2140.74</ele>
        <time>2024-10-10T12:18:49Z</time>
      </trkpt>
      <trkpt lat="44.92634" lon="6.03577">
        <ele>2130.73</ele>
        <time>2024-10-10T12:19:21Z</time>
      </trkpt>
      <trkpt lat="44.92627" lon="6.03554">
        <ele>2123.05</ele>
        <time>2024-10-10T12:20:01Z</time>
      </trkpt>
      <trkpt lat="44.92627" lon="6.03528">
        <ele>2118.53</ele>
        <time>2024-10-10T12:20:28Z</time>
      </trkpt>
      <trkpt lat="44.92624" lon="6.03503">
        <ele>2115.01</ele>
        <time>2024-10-10T12:21:00Z</time>
      </trkpt>
      <trkpt lat="44.92618" lon="6.03478">
        <ele>2106.74</ele>
        <time>2024-10-10T12:24:22Z</time>
      </trkpt>
      <trkpt lat="44.92602" lon="6.03465">
        <ele>2105.8</ele>
        <time>2024-10-10T12:25:02Z</time>
      </trkpt>
      <trkpt lat="44.92585" lon="6.03456">
        <ele>2100.13</ele>
        <time>2024-10-10T12:25:28Z</time>
      </trkpt>
      <trkpt lat="44.92566" lon="6.03452">
        <ele>2097.75</ele>
        <time>2024-10-10T12:25:54Z</time>
      </trkpt>
      <trkpt lat="44.92548" lon="6.03446">
        <ele>2097.65</ele>
        <time>2024-10-10T12:26:39Z</time>
      </trkpt>
      <trkpt lat="44.9253" lon="6.0344">
        <ele>2091.77</ele>
        <time>2024-10-10T12:27:01Z</time>
      </trkpt>
      <trkpt lat="44.92512" lon="6.03444">
        <ele>2088.45</ele>
        <time>2024-10-10T12:27:21Z</time>
      </trkpt>
      <trkpt lat="44.92495" lon="6.03452">
        <ele>2085.47</ele>
        <time>2024-10-10T12:27:41Z</time>
      </trkpt>
      <trkpt lat="44.92477" lon="6.03455">
        <ele>2083.45</ele>
        <time>2024-10-10T12:28:03Z</time>
      </trkpt>
      <trkpt lat="44.9246" lon="6.03465">
        <ele>2080.75</ele>
        <time>2024-10-10T12:28:29Z</time>
      </trkpt>
      <trkpt lat="44.92447" lon="6.03484">
        <ele>2075.77</ele>
        <time>2024-10-10T12:28:53Z</time>
      </trkpt>
      <trkpt lat="44.9243" lon="6.03495">
        <ele>2077.71</ele>
        <time>2024-10-10T12:29:14Z</time>
      </trkpt>
      <trkpt lat="44.92412" lon="6.03491">
        <ele>2075.74</ele>
        <time>2024-10-10T12:29:34Z</time>
      </trkpt>
      <trkpt lat="44.92399" lon="6.03471">
        <ele>2073.03</ele>
        <time>2024-10-10T12:29:54Z</time>
      </trkpt>
      <trkpt lat="44.92385" lon="6.03454">
        <ele>2070.13</ele>
        <time>2024-10-10T12:30:12Z</time>
      </trkpt>
      <trkpt lat="44.92367" lon="6.03446">
        <ele>2067.77</ele>
        <time>2024-10-10T12:30:33Z</time>
      </trkpt>
      <trkpt lat="44.92352" lon="6.03433">
        <ele>2063.84</ele>
        <time>2024-10-10T12:31:01Z</time>
      </trkpt>
      <trkpt lat="44.92334" lon="6.03429">
        <ele>2062.74</ele>
        <time>2024-10-10T12:31:23Z</time>
      </trkpt>
      <trkpt lat="44.92316" lon="6.03422">
        <ele>2059.77</ele>
        <time>2024-10-10T12:31:44Z</time>
      </trkpt>
      <trkpt lat="44.92298" lon="6.03413">
        <ele>2055.74</ele>
        <time>2024-10-10T12:32:07Z</time>
      </trkpt>
      <trkpt lat="44.9228" lon="6.03412">
        <ele>2053.83</ele>
        <time>2024-10-10T12:32:27Z</time>
      </trkpt>
      <trkpt lat="44.92261" lon="6.0341">
        <ele>2051.75</ele>
        <time>2024-10-10T12:32:48Z</time>
      </trkpt>
      <trkpt lat="44.92246" lon="6.03394">
        <ele>2048.74</ele>
        <time>2024-10-10T12:33:11Z</time>
      </trkpt>
      <trkpt lat="44.92234" lon="6.03376">
        <ele>2041.37</ele>
        <time>2024-10-10T12:33:40Z</time>
      </trkpt>
      <trkpt lat="44.92218" lon="6.03363">
        <ele>2039.47</ele>
        <time>2024-10-10T12:34:10Z</time>
      </trkpt>
      <trkpt lat="44.92202" lon="6.03351">
        <ele>2031.98</ele>
        <time>2024-10-10T12:34:57Z</time>
      </trkpt>
      <trkpt lat="44.92191" lon="6.03331">
        <ele>2028.83</ele>
        <time>2024-10-10T12:35:29Z</time>
      </trkpt>
      <trkpt lat="44.92192" lon="6.03305">
        <ele>2028.74</ele>
        <time>2024-10-10T12:37:27Z</time>
      </trkpt>
      <trkpt lat="44.92178" lon="6.03288">
        <ele>2022.72</ele>
        <time>2024-10-10T12:38:18Z</time>
      </trkpt>
      <trkpt lat="44.92161" lon="6.03279">
        <ele>2017.68</ele>
        <time>2024-10-10T12:38:43Z</time>
      </trkpt>
      <trkpt lat="44.92145" lon="6.03267">
        <ele>2012.95</ele>
        <time>2024-10-10T12:39:09Z</time>
      </trkpt>
      <trkpt lat="44.9213" lon="6.03253">
        <ele>2004.05</ele>
        <time>2024-10-10T12:39:37Z</time>
      </trkpt>
      <trkpt lat="44.92115" lon="6.03238">
        <ele>1999.74</ele>
        <time>2024-10-10T12:39:59Z</time>
      </trkpt>
      <trkpt lat="44.92097" lon="6.03243">
        <ele>1995.72</ele>
        <time>2024-10-10T12:40:33Z</time>
      </trkpt>
      <trkpt lat="44.92085" lon="6.03263">
        <ele>1986.83</ele>
        <time>2024-10-10T12:40:58Z</time>
      </trkpt>
      <trkpt lat="44.92083" lon="6.03288">
        <ele>1978.04</ele>
        <time>2024-10-10T12:41:29Z</time>
      </trkpt>
      <trkpt lat="44.92078" lon="6.03313">
        <ele>1970.78</ele>
        <time>2024-10-10T12:41:49Z</time>
      </trkpt>
      <trkpt lat="44.92076" lon="6.03338">
        <ele>1966.77</ele>
        <time>2024-10-10T12:42:05Z</time>
      </trkpt>
      <trkpt lat="44.92066" lon="6.03359">
        <ele>1963.74</ele>
        <time>2024-10-10T12:42:25Z</time>
      </trkpt>
      <trkpt lat="44.9205" lon="6.03373">
        <ele>1960.05</ele>
        <time>2024-10-10T12:42:55Z</time>
      </trkpt>
      <trkpt lat="44.92032" lon="6.0338">
        <ele>1956.86</ele>
        <time>2024-10-10T12:43:18Z</time>
      </trkpt>
      <trkpt lat="44.92014" lon="6.03384">
        <ele>1952.25</ele>
        <time>2024-10-10T12:43:39Z</time>
      </trkpt>
      <trkpt lat="44.91996" lon="6.0339">
        <ele>1946.78</ele>
        <time>2024-10-10T12:44:07Z</time>
      </trkpt>
      <trkpt lat="44.9198" lon="6.03403">
        <ele>1941.83</ele>
        <time>2024-10-10T12:49:57Z</time>
      </trkpt>
      <trkpt lat="44.91961" lon="6.03406">
        <ele>1935.04</ele>
        <time>2024-10-10T12:50:33Z</time>
      </trkpt>
      <trkpt lat="44.91952" lon="6.03383">
        <ele>1932.74</ele>
        <time>2024-10-10T12:50:54Z</time>
      </trkpt>
      <trkpt lat="44.91936" lon="6.03369">
        <ele>1929.93</ele>
        <time>2024-10-10T12:51:17Z</time>
      </trkpt>
      <trkpt lat="44.91919" lon="6.03357">
        <ele>1925.77</ele>
        <time>2024-10-10T12:51:39Z</time>
      </trkpt>
      <trkpt lat="44.91905" lon="6.0334">
        <ele>1922.68</ele>
        <time>2024-10-10T12:52:06Z</time>
      </trkpt>
      <trkpt lat="44.91887" lon="6.03338">
        <ele>1917.07</ele>
        <time>2024-10-10T12:52:41Z</time>
      </trkpt>
      <trkpt lat="44.91869" lon="6.03343">
        <ele>1916.5</ele>
        <time>2024-10-10T12:53:00Z</time>
      </trkpt>
      <trkpt lat="44.91851" lon="6.03342">
        <ele>1913.04</ele>
        <time>2024-10-10T12:53:17Z</time>
      </trkpt>
      <trkpt lat="44.91841" lon="6.03364">
        <ele>1900.84</ele>
        <time>2024-10-10T12:54:14Z</time>
      </trkpt>
      <trkpt lat="44.91829" lon="6.03383">
        <ele>1895.54</ele>
        <time>2024-10-10T12:54:57Z</time>
      </trkpt>
      <trkpt lat="44.91813" lon="6.03371">
        <ele>1887.77</ele>
        <time>2024-10-10T12:55:56Z</time>
      </trkpt>
      <trkpt lat="44.91795" lon="6.03362">
        <ele>1874.83</ele>
        <time>2024-10-10T12:57:41Z</time>
      </trkpt>
      <trkpt lat="44.91778" lon="6.0337">
        <ele>1872.05</ele>
        <time>2024-10-10T12:59:37Z</time>
      </trkpt>
      <trkpt lat="44.91761" lon="6.03378">
        <ele>1866.04</ele>
        <time>2024-10-10T13:00:09Z</time>
      </trkpt>
      <trkpt lat="44.91743" lon="6.03387">
        <ele>1861.04</ele>
        <time>2024-10-10T13:00:52Z</time>
      </trkpt>
      <trkpt lat="44.91725" lon="6.03383">
        <ele>1855.74</ele>
        <time>2024-10-10T13:01:15Z</time>
      </trkpt>
      <trkpt lat="44.91707" lon="6.03379">
        <ele>1847.83</ele>
        <time>2024-10-10T13:01:37Z</time>
      </trkpt>
      <trkpt lat="44.91688" lon="6.03373">
        <ele>1844.75</ele>
        <time>2024-10-10T13:01:53Z</time>
      </trkpt>
      <trkpt lat="44.9167" lon="6.03374">
        <ele>1844.8</ele>
        <time>2024-10-10T13:02:14Z</time>
      </trkpt>
      <trkpt lat="44.91651" lon="6.03377">
        <ele>1844.73</ele>
        <time>2024-10-10T13:02:35Z</time>
      </trkpt>
      <trkpt lat="44.91633" lon="6.03377">
        <ele>1842.74</ele>
        <time>2024-10-10T13:03:01Z</time>
      </trkpt>
      <trkpt lat="44.91615" lon="6.03372">
        <ele>1836.86</ele>
        <time>2024-10-10T13:03:24Z</time>
      </trkpt>
      <trkpt lat="44.91598" lon="6.03363">
        <ele>1831.75</ele>
        <time>2024-10-10T13:03:48Z</time>
      </trkpt>
      <trkpt lat="44.91587" lon="6.03343">
        <ele>1828.77</ele>
        <time>2024-10-10T13:04:26Z</time>
      </trkpt>
      <trkpt lat="44.91572" lon="6.03328">
        <ele>1824.04</ele>
        <time>2024-10-10T13:04:51Z</time>
      </trkpt>
      <trkpt lat="44.91553" lon="6.03332">
        <ele>1819.74</ele>
        <time>2024-10-10T13:05:26Z</time>
      </trkpt>
      <trkpt lat="44.91535" lon="6.03333">
        <ele>1814.77</ele>
        <time>2024-10-10T13:05:45Z</time>
      </trkpt>
      <trkpt lat="44.91517" lon="6.03338">
        <ele>1809.77</ele>
        <time>2024-10-10T13:06:03Z</time>
      </trkpt>
      <trkpt lat="44.915" lon="6.03349">
        <ele>1802.07</ele>
        <time>2024-10-10T13:06:32Z</time>
      </trkpt>
      <trkpt lat="44.91483" lon="6.03354">
        <ele>1796.77</ele>
        <time>2024-10-10T13:07:31Z</time>
      </trkpt>
      <trkpt lat="44.91468" lon="6.03371">
        <ele>1791.83</ele>
        <time>2024-10-10T13:08:00Z</time>
      </trkpt>
      <trkpt lat="44.91451" lon="6.03378">
        <ele>1785.75</ele>
        <time>2024-10-10T13:08:28Z</time>
      </trkpt>
      <trkpt lat="44.91433" lon="6.03387">
        <ele>1783.65</ele>
        <time>2024-10-10T13:08:55Z</time>
      </trkpt>
      <trkpt lat="44.91416" lon="6.03395">
        <ele>1777.74</ele>
        <time>2024-10-10T13:09:21Z</time>
      </trkpt>
      <trkpt lat="44.91401" lon="6.03409">
        <ele>1773.74</ele>
        <time>2024-10-10T13:09:43Z</time>
      </trkpt>
      <trkpt lat="44.91385" lon="6.03424">
        <ele>1768.83</ele>
        <time>2024-10-10T13:10:04Z</time>
      </trkpt>
      <trkpt lat="44.91403" lon="6.03422">
        <ele>1764.04</ele>
        <time>2024-10-10T13:10:35Z</time>
      </trkpt>
      <trkpt lat="44.91422" lon="6.03423">
        <ele>1758.83</ele>
        <time>2024-10-10T13:10:55Z</time>
      </trkpt>
      <trkpt lat="44.91407" lon="6.03439">
        <ele>1756.74</ele>
        <time>2024-10-10T13:11:31Z</time>
      </trkpt>
      <trkpt lat="44.91392" lon="6.03453">
        <ele>1753.75</ele>
        <time>2024-10-10T13:11:50Z</time>
      </trkpt>
      <trkpt lat="44.9141" lon="6.03457">
        <ele>1744.74</ele>
        <time>2024-10-10T13:12:50Z</time>
      </trkpt>
      <trkpt lat="44.91428" lon="6.03464">
        <ele>1739.83</ele>
        <time>2024-10-10T13:13:24Z</time>
      </trkpt>
      <trkpt lat="44.91445" lon="6.03477">
        <ele>1736.75</ele>
        <time>2024-10-10T13:13:44Z</time>
      </trkpt>
      <trkpt lat="44.91433" lon="6.03496">
        <ele>1733.74</ele>
        <time>2024-10-10T13:14:27Z</time>
      </trkpt>
      <trkpt lat="44.91414" lon="6.03501">
        <ele>1732.74</ele>
        <time>2024-10-10T13:14:47Z</time>
      </trkpt>
      <trkpt lat="44.91398" lon="6.03513">
        <ele>1727.77</ele>
        <time>2024-10-10T13:15:06Z</time>
      </trkpt>
      <trkpt lat="44.91414" lon="6.03524">
        <ele>1719.83</ele>
        <time>2024-10-10T13:15:38Z</time>
      </trkpt>
      <trkpt lat="44.9143" lon="6.03539">
        <ele>1715.75</ele>
        <time>2024-10-10T13:15:55Z</time>
      </trkpt>
      <trkpt lat="44.91445" lon="6.03554">
        <ele>1713.83</ele>
        <time>2024-10-10T13:16:13Z</time>
      </trkpt>
      <trkpt lat="44.91462" lon="6.03561">
        <ele>1708.78</ele>
        <time>2024-10-10T13:16:34Z</time>
      </trkpt>
      <trkpt lat="44.91481" lon="6.03568">
        <ele>1704.68</ele>
        <time>2024-10-10T13:16:58Z</time>
      </trkpt>
      <trkpt lat="44.9149" lon="6.03591">
        <ele>1701.65</ele>
        <time>2024-10-10T13:23:08Z</time>
      </trkpt>
      <trkpt lat="44.91484" lon="6.03615">
        <ele>1703.73</ele>
        <time>2024-10-10T13:23:37Z</time>
      </trkpt>
      <trkpt lat="44.91478" lon="6.03639">
        <ele>1703.74</ele>
        <time>2024-10-10T13:23:56Z</time>
      </trkpt>
      <trkpt lat="44.91472" lon="6.03663">
        <ele>1699.05</ele>
        <time>2024-10-10T13:24:46Z</time>
      </trkpt>
      <trkpt lat="44.91458" lon="6.03681">
        <ele>1697.75</ele>
        <time>2024-10-10T13:25:13Z</time>
      </trkpt>
      <trkpt lat="44.91444" lon="6.03698">
        <ele>1691.83</ele>
        <time>2024-10-10T13:25:43Z</time>
      </trkpt>
      <trkpt lat="44.9143" lon="6.03715">
        <ele>1687.74</ele>
        <time>2024-10-10T13:26:07Z</time>
      </trkpt>
      <trkpt lat="44.91416" lon="6.0373">
        <ele>1681.8</ele>
        <time>2024-10-10T13:26:35Z</time>
      </trkpt>
      <trkpt lat="44.91399" lon="6.03742">
        <ele>1679.75</ele>
        <time>2024-10-10T13:27:07Z</time>
      </trkpt>
      <trkpt lat="44.91382" lon="6.03753">
        <ele>1672.05</ele>
        <time>2024-10-10T13:27:40Z</time>
      </trkpt>
      <trkpt lat="44.91365" lon="6.03763">
        <ele>1670.04</ele>
        <time>2024-10-10T13:28:03Z</time>
      </trkpt>
      <trkpt lat="44.91349" lon="6.03774">
        <ele>1663.84</ele>
        <time>2024-10-10T13:28:31Z</time>
      </trkpt>
      <trkpt lat="44.91333" lon="6.03789">
        <ele>1665.71</ele>
        <time>2024-10-10T13:28:49Z</time>
      </trkpt>
      <trkpt lat="44.91318" lon="6.03801">
        <ele>1652.76</ele>
        <time>2024-10-10T13:29:43Z</time>
      </trkpt>
      <trkpt lat="44.91309" lon="6.03824">
        <ele>1647.83</ele>
        <time>2024-10-10T13:30:10Z</time>
      </trkpt>
      <trkpt lat="44.91299" lon="6.03845">
        <ele>1645.74</ele>
        <time>2024-10-10T13:30:52Z</time>
      </trkpt>
      <trkpt lat="44.91284" lon="6.03861">
        <ele>1641.02</ele>
        <time>2024-10-10T13:31:24Z</time>
      </trkpt>
      <trkpt lat="44.91268" lon="6.03872">
        <ele>1635.77</ele>
        <time>2024-10-10T13:32:15Z</time>
      </trkpt>
      <trkpt lat="44.91252" lon="6.03884">
        <ele>1632.05</ele>
        <time>2024-10-10T13:32:42Z</time>
      </trkpt>
      <trkpt lat="44.91234" lon="6.0388">
        <ele>1618.74</ele>
        <time>2024-10-10T13:33:48Z</time>
      </trkpt>
      <trkpt lat="44.91217" lon="6.0389">
        <ele>1611.84</ele>
        <time>2024-10-10T13:34:31Z</time>
      </trkpt>
      <trkpt lat="44.9121" lon="6.03915">
        <ele>1604.04</ele>
        <time>2024-10-10T13:35:00Z</time>
      </trkpt>
      <trkpt lat="44.91207" lon="6.0394">
        <ele>1603.74</ele>
        <time>2024-10-10T13:35:39Z</time>
      </trkpt>
      <trkpt lat="44.91201" lon="6.03965">
        <ele>1589.84</ele>
        <time>2024-10-10T13:36:44Z</time>
      </trkpt>
      <trkpt lat="44.91194" lon="6.03989">
        <ele>1589.04</ele>
        <time>2024-10-10T13:37:20Z</time>
      </trkpt>
      <trkpt lat="44.91182" lon="6.0401">
        <ele>1582.74</ele>
        <time>2024-10-10T13:38:09Z</time>
      </trkpt>
      <trkpt lat="44.91167" lon="6.04023">
        <ele>1578.83</ele>
        <time>2024-10-10T13:38:37Z</time>
      </trkpt>
      <trkpt lat="44.91151" lon="6.04037">
        <ele>1576.87</ele>
        <time>2024-10-10T13:39:35Z</time>
      </trkpt>
      <trkpt lat="44.91138" lon="6.04056">
        <ele>1571.04</ele>
        <time>2024-10-10T13:40:30Z</time>
      </trkpt>
      <trkpt lat="44.91125" lon="6.04074">
        <ele>1565.74</ele>
        <time>2024-10-10T13:41:13Z</time>
      </trkpt>
      <trkpt lat="44.9112" lon="6.041">
        <ele>1561.74</ele>
        <time>2024-10-10T13:41:44Z</time>
      </trkpt>
      <trkpt lat="44.91115" lon="6.04125">
        <ele>1558.74</ele>
        <time>2024-10-10T13:42:11Z</time>
      </trkpt>
      <trkpt lat="44.91117" lon="6.04151">
        <ele>1556.8</ele>
        <time>2024-10-10T13:42:38Z</time>
      </trkpt>
      <trkpt lat="44.911" lon="6.0416">
        <ele>1551.75</ele>
        <time>2024-10-10T13:43:23Z</time>
      </trkpt>
      <trkpt lat="44.91082" lon="6.04167">
        <ele>1548.98</ele>
        <time>2024-10-10T13:43:44Z</time>
      </trkpt>
      <trkpt lat="44.91066" lon="6.04179">
        <ele>1543.34</ele>
        <time>2024-10-10T13:44:22Z</time>
      </trkpt>
      <trkpt lat="44.91054" lon="6.04198">
        <ele>1536.86</ele>
        <time>2024-10-10T13:45:05Z</time>
      </trkpt>
      <trkpt lat="44.91051" lon="6.04224">
        <ele>1533.74</ele>
        <time>2024-10-10T13:45:44Z</time>
      </trkpt>
      <trkpt lat="44.91051" lon="6.0425">
        <ele>1528.75</ele>
        <time>2024-10-10T13:47:33Z</time>
      </trkpt>
      <trkpt lat="44.91048" lon="6.04276">
        <ele>1523.04</ele>
        <time>2024-10-10T13:48:07Z</time>
      </trkpt>
      <trkpt lat="44.91031" lon="6.04267">
        <ele>1512.74</ele>
        <time>2024-10-10T13:48:57Z</time>
      </trkpt>
      <trkpt lat="44.91028" lon="6.0424">
        <ele>1505.74</ele>
        <time>2024-10-10T13:49:28Z</time>
      </trkpt>
      <trkpt lat="44.91013" lon="6.04224">
        <ele>1494.01</ele>
        <time>2024-10-10T13:50:20Z</time>
      </trkpt>
      <trkpt lat="44.91" lon="6.04207">
        <ele>1486.77</ele>
        <time>2024-10-10T13:51:05Z</time>
      </trkpt>
      <trkpt lat="44.90989" lon="6.04187">
        <ele>1479.04</ele>
        <time>2024-10-10T13:51:54Z</time>
      </trkpt>
      <trkpt lat="44.90986" lon="6.04213">
        <ele>1474.74</ele>
        <time>2024-10-10T13:52:24Z</time>
      </trkpt>
      <trkpt lat="44.90969" lon="6.04221">
        <ele>1461.13</ele>
        <time>2024-10-10T13:53:45Z</time>
      </trkpt>
      <trkpt lat="44.90963" lon="6.04245">
        <ele>1452.83</ele>
        <time>2024-10-10T13:54:16Z</time>
      </trkpt>
      <trkpt lat="44.90959" lon="6.0427">
        <ele>1445.77</ele>
        <time>2024-10-10T13:54:58Z</time>
      </trkpt>
      <trkpt lat="44.90961" lon="6.04296">
        <ele>1439.75</ele>
        <time>2024-10-10T13:55:30Z</time>
      </trkpt>
      <trkpt lat="44.90964" lon="6.04321">
        <ele>1434.75</ele>
        <time>2024-10-10T13:56:13Z</time>
      </trkpt>
      <trkpt lat="44.90963" lon="6.04347">
        <ele>1430.77</ele>
        <time>2024-10-10T13:57:18Z</time>
      </trkpt>
      <trkpt lat="44.90959" lon="6.04372">
        <ele>1411.75</ele>
        <time>2024-10-10T13:59:14Z</time>
      </trkpt>
      <trkpt lat="44.90959" lon="6.04398">
        <ele>1402.74</ele>
        <time>2024-10-10T14:00:04Z</time>
      </trkpt>
      <trkpt lat="44.90956" lon="6.04423">
        <ele>1398.07</ele>
        <time>2024-10-10T14:00:51Z</time>
      </trkpt>
      <trkpt lat="44.90956" lon="6.04449">
        <ele>1393.77</ele>
        <time>2024-10-10T14:01:12Z</time>
      </trkpt>
      <trkpt lat="44.90952" lon="6.04475">
        <ele>1386.72</ele>
        <time>2024-10-10T14:02:03Z</time>
      </trkpt>
      <trkpt lat="44.90953" lon="6.045">
        <ele>1383.74</ele>
        <time>2024-10-10T14:02:20Z</time>
      </trkpt>
      <trkpt lat="44.90952" lon="6.04526">
        <ele>1380.74</ele>
        <time>2024-10-10T14:02:45Z</time>
      </trkpt>
      <trkpt lat="44.90951" lon="6.04552">
        <ele>1376.98</ele>
        <time>2024-10-10T14:03:07Z</time>
      </trkpt>
      <trkpt lat="44.90952" lon="6.04577">
        <ele>1374.83</ele>
        <time>2024-10-10T14:03:26Z</time>
      </trkpt>
      <trkpt lat="44.90954" lon="6.04604">
        <ele>1371.74</ele>
        <time>2024-10-10T14:03:47Z</time>
      </trkpt>
      <trkpt lat="44.90953" lon="6.0463">
        <ele>1369.83</ele>
        <time>2024-10-10T14:04:05Z</time>
      </trkpt>
      <trkpt lat="44.90952" lon="6.04655">
        <ele>1366.68</ele>
        <time>2024-10-10T14:04:31Z</time>
      </trkpt>
      <trkpt lat="44.90953" lon="6.04681">
        <ele>1361.74</ele>
        <time>2024-10-10T14:04:52Z</time>
      </trkpt>
      <trkpt lat="44.90957" lon="6.04707">
        <ele>1357.72</ele>
        <time>2024-10-10T14:05:15Z</time>
      </trkpt>
      <trkpt lat="44.90954" lon="6.04733">
        <ele>1357.45</ele>
        <time>2024-10-10T14:05:33Z</time>
      </trkpt>
      <trkpt lat="44.90955" lon="6.0476">
        <ele>1356.77</ele>
        <time>2024-10-10T14:05:50Z</time>
      </trkpt>
      <trkpt lat="44.90957" lon="6.04786">
        <ele>1354.74</ele>
        <time>2024-10-10T14:06:09Z</time>
      </trkpt>
      <trkpt lat="44.9096" lon="6.04812">
        <ele>1351.05</ele>
        <time>2024-10-10T14:06:25Z</time>
      </trkpt>
      <trkpt lat="44.90963" lon="6.04838">
        <ele>1348.82</ele>
        <time>2024-10-10T14:06:42Z</time>
      </trkpt>
      <trkpt lat="44.90967" lon="6.04864">
        <ele>1348.84</ele>
        <time>2024-10-10T14:06:59Z</time>
      </trkpt>
      <trkpt lat="44.90966" lon="6.0489">
        <ele>1344.86</ele>
        <time>2024-10-10T14:07:25Z</time>
      </trkpt>
      <trkpt lat="44.90963" lon="6.04915">
        <ele>1345.77</ele>
        <time>2024-10-10T14:07:47Z</time>
      </trkpt>
      <trkpt lat="44.9096" lon="6.04942">
        <ele>1338.74</ele>
        <time>2024-10-10T14:08:54Z</time>
      </trkpt>
      <trkpt lat="44.90955" lon="6.04967">
        <ele>1326.05</ele>
        <time>2024-10-10T14:10:01Z</time>
      </trkpt>
      <trkpt lat="44.90955" lon="6.04993">
        <ele>1324.74</ele>
        <time>2024-10-10T14:10:30Z</time>
      </trkpt>
      <trkpt lat="44.90958" lon="6.05018">
        <ele>1322.04</ele>
        <time>2024-10-10T14:11:07Z</time>
      </trkpt>
      <trkpt lat="44.90957" lon="6.05044">
        <ele>1317.74</ele>
        <time>2024-10-10T14:11:36Z</time>
      </trkpt>
      <trkpt lat="44.90953" lon="6.05069">
        <ele>1313.07</ele>
        <time>2024-10-10T14:11:58Z</time>
      </trkpt>
      <trkpt lat="44.90954" lon="6.05094">
        <ele>1307.01</ele>
        <time>2024-10-10T14:12:23Z</time>
      </trkpt>
      <trkpt lat="44.90954" lon="6.0512">
        <ele>1304.75</ele>
        <time>2024-10-10T14:12:46Z</time>
      </trkpt>
      <trkpt lat="44.90954" lon="6.05146">
        <ele>1301.83</ele>
        <time>2024-10-10T14:13:06Z</time>
      </trkpt>
      <trkpt lat="44.90945" lon="6.05168">
        <ele>1297.73</ele>
        <time>2024-10-10T14:13:31Z</time>
      </trkpt>
      <trkpt lat="44.90928" lon="6.05178">
        <ele>1291.83</ele>
        <time>2024-10-10T14:14:04Z</time>
      </trkpt>
      <trkpt lat="44.90931" lon="6.05204">
        <ele>1288.8</ele>
        <time>2024-10-10T14:14:28Z</time>
      </trkpt>
      <trkpt lat="44.90931" lon="6.0523">
        <ele>1289.65</ele>
        <time>2024-10-10T14:14:43Z</time>
      </trkpt>
      <trkpt lat="44.90929" lon="6.05257">
        <ele>1289.74</ele>
        <time>2024-10-10T14:15:00Z</time>
      </trkpt>
      <trkpt lat="44.9092" lon="6.05281">
        <ele>1283.07</ele>
        <time>2024-10-10T14:15:25Z</time>
      </trkpt>
      <trkpt lat="44.90916" lon="6.05305">
        <ele>1280.74</ele>
        <time>2024-10-10T14:15:50Z</time>
      </trkpt>
      <trkpt lat="44.90915" lon="6.05332">
        <ele>1276.74</ele>
        <time>2024-10-10T14:16:16Z</time>
      </trkpt>
      <trkpt lat="44.9092" lon="6.05357">
        <ele>1277.74</ele>
        <time>2024-10-10T14:16:42Z</time>
      </trkpt>
      <trkpt lat="44.90926" lon="6.05381">
        <ele>1281.71</ele>
        <time>2024-10-10T14:17:07Z</time>
      </trkpt>
      <trkpt lat="44.90922" lon="6.05407">
        <ele>1285.73</ele>
        <time>2024-10-10T14:17:53Z</time>
      </trkpt>
      <trkpt lat="44.90908" lon="6.05424">
        <ele>1286.68</ele>
        <time>2024-10-10T14:18:15Z</time>
      </trkpt>
      <trkpt lat="44.9089" lon="6.0543">
        <ele>1289.71</ele>
        <time>2024-10-10T14:18:39Z</time>
      </trkpt>
      <trkpt lat="44.90873" lon="6.05437">
        <ele>1284.75</ele>
        <time>2024-10-10T14:19:00Z</time>
      </trkpt>
      <trkpt lat="44.90854" lon="6.05443">
        <ele>1282.75</ele>
        <time>2024-10-10T14:19:26Z</time>
      </trkpt>
      <trkpt lat="44.90836" lon="6.05443">
        <ele>1278.74</ele>
        <time>2024-10-10T14:19:44Z</time>
      </trkpt>
      <trkpt lat="44.90819" lon="6.05434">
        <ele>1284.74</ele>
        <time>2024-10-10T14:20:04Z</time>
      </trkpt>
      <trkpt lat="44.908" lon="6.0543">
        <ele>1285.73</ele>
        <time>2024-10-10T14:20:23Z</time>
      </trkpt>
      <trkpt lat="44.90782" lon="6.05424">
        <ele>1286.74</ele>
        <time>2024-10-10T14:20:44Z</time>
      </trkpt>
      <trkpt lat="44.90769" lon="6.05441">
        <ele>1285.87</ele>
        <time>2024-10-10T14:21:16Z</time>
      </trkpt>
      <trkpt lat="44.90758" lon="6.05461">
        <ele>1282.84</ele>
        <time>2024-10-10T14:21:36Z</time>
      </trkpt>
    </trkseg>
  </trk>
</gpx>